Time;durP1;ratioP1;P1;durP2;ratioP2;P2;SDS_P1;SDS_P2;PMS_P1;PMS_P2;Temp;Humidity;BMP_temperature;BMP_pressure;BME280_temperature;BME280_humidity;BME280_pressure;Samples;Min_cycle;Max_cycle;Signal;HPM_P1;HPM_P2
2024/01/16 00:01:42;;;;;;;0.80;0.30;;;4.70;44.70;;;;;;5091996;28;20250;-46
2024/01/16 00:04:08;;;;;;;0.80;0.38;;;4.80;45.00;;;;;;5092300;28;20951;-45
2024/01/16 00:06:38;;;;;;;0.80;0.40;;;4.80;45.00;;;;;;5092288;28;20176;-44
2024/01/16 00:09:05;;;;;;;0.80;0.40;;;4.90;44.80;;;;;;5092380;28;20421;-47
2024/01/16 00:11:30;;;;;;;0.80;0.30;;;4.80;43.90;;;;;;5092149;28;20203;-48
2024/01/16 00:13:56;;;;;;;1.37;0.57;;;4.90;43.80;;;;;;5092258;28;20176;-45
2024/01/16 00:16:22;;;;;;;0.80;0.33;;;5.00;43.50;;;;;;5092165;28;20553;-43
2024/01/16 00:18:48;;;;;;;1.27;0.50;;;5.00;42.30;;;;;;5092147;28;20215;-46
2024/01/16 00:21:13;;;;;;;0.97;0.50;;;5.00;43.00;;;;;;5092176;28;20195;-42
2024/01/16 00:23:39;;;;;;;0.80;0.20;;;5.10;42.20;;;;;;5091988;28;20710;-45
2024/01/16 00:26:05;;;;;;;0.80;0.30;;;4.90;42.40;;;;;;5092224;28;20168;-50
2024/01/16 00:28:32;;;;;;;0.90;0.30;;;5.00;42.60;;;;;;5092128;28;20184;-44
2024/01/16 00:30:57;;;;;;;1.10;0.90;;;4.90;42.80;;;;;;5091705;28;20234;-47
2024/01/16 00:33:23;;;;;;;2.43;1.13;;;4.70;45.80;;;;;;5092291;28;20214;-43
2024/01/16 00:35:49;;;;;;;1.40;1.20;;;4.40;48.00;;;;;;5092021;28;20203;-50
2024/01/16 00:38:14;;;;;;;0.80;0.33;;;4.40;48.10;;;;;;5091993;28;20176;-44
2024/01/16 00:40:40;;;;;;;0.80;0.20;;;4.40;48.00;;;;;;5091670;28;20211;-48
2024/01/16 00:43:06;;;;;;;0.80;0.40;;;4.50;47.90;;;;;;5091972;28;20534;-45
2024/01/16 00:45:31;;;;;;;0.90;0.50;;;4.60;47.60;;;;;;5091741;28;20212;-44
2024/01/16 00:47:57;;;;;;;0.80;0.20;;;4.70;47.50;;;;;;5091928;28;20650;-48
2024/01/16 00:50:24;;;;;;;0.80;0.20;;;4.60;47.20;;;;;;5091911;28;20203;-45
2024/01/16 00:52:50;;;;;;;0.80;0.50;;;4.50;47.20;;;;;;5091935;28;20176;-49
2024/01/16 00:55:15;;;;;;;0.80;0.30;;;4.40;47.30;;;;;;5091836;28;20173;-48
2024/01/16 00:57:41;;;;;;;0.80;0.30;;;4.40;47.30;;;;;;5091857;28;20200;-45
2024/01/16 01:00:09;;;;;;;0.93;0.63;;;4.30;47.90;;;;;;5091419;28;20574;-47
2024/01/16 01:02:35;;;;;;;0.80;0.35;;;4.30;48.00;;;;;;5091736;28;20269;-46
2024/01/16 01:05:01;;;;;;;0.80;0.30;;;4.40;47.80;;;;;;5092594;28;20232;-45
2024/01/16 01:07:27;;;;;;;0.80;0.30;;;4.40;47.80;;;;;;5095715;28;20195;-45
2024/01/16 01:09:52;;;;;;;0.80;0.30;;;4.50;46.80;;;;;;5095519;28;20189;-46
2024/01/16 01:12:18;;;;;;;0.70;0.20;;;4.50;46.80;;;;;;5095608;28;20753;-46
2024/01/16 01:14:44;;;;;;;0.80;0.30;;;4.60;46.20;;;;;;5095343;28;20179;-48
2024/01/16 01:17:09;;;;;;;1.27;0.87;;;4.60;46.30;;;;;;5095698;28;20432;-45
2024/01/16 01:19:35;;;;;;;0.80;0.33;;;4.70;45.70;;;;;;5095482;28;20179;-45
2024/01/16 01:22:01;;;;;;;0.80;0.40;;;4.60;45.50;;;;;;5095191;28;20252;-45
2024/01/16 01:24:27;;;;;;;0.87;0.57;;;4.60;46.10;;;;;;5095126;28;20231;-46
2024/01/16 01:26:52;;;;;;;0.80;0.30;;;4.60;46.10;;;;;;5094192;28;20211;-46
2024/01/16 01:29:18;;;;;;;1.13;0.50;;;4.60;46.60;;;;;;5095124;28;20173;-47
2024/01/16 01:31:47;;;;;;;1.40;0.33;;;4.60;46.80;;;;;;5095163;28;20191;-44
2024/01/16 01:34:13;;;;;;;0.80;0.20;;;4.50;47.10;;;;;;5095094;28;20588;-46
2024/01/16 01:36:39;;;;;;;0.80;0.30;;;4.60;47.10;;;;;;5095111;28;20270;-45
2024/01/16 01:39:05;;;;;;;0.80;0.23;;;4.60;46.90;;;;;;5095039;28;20176;-47
2024/01/16 01:41:31;;;;;;;0.80;0.45;;;4.70;46.80;;;;;;5094498;28;20207;-44
2024/01/16 01:43:57;;;;;;;0.80;0.40;;;4.70;46.60;;;;;;5094651;28;20200;-45
2024/01/16 01:46:23;;;;;;;0.80;0.30;;;4.70;46.50;;;;;;5095118;28;20659;-48
2024/01/16 01:48:49;;;;;;;0.80;0.35;;;4.80;46.30;;;;;;5095027;28;20180;-45
2024/01/16 01:51:18;;;;;;;0.90;0.65;;;4.70;46.50;;;;;;5094617;28;20294;-49
2024/01/16 01:53:46;;;;;;;0.80;0.30;;;4.60;46.80;;;;;;5094776;28;20519;-50
2024/01/16 01:56:15;;;;;;;1.38;1.25;;;4.40;47.10;;;;;;5094632;28;20735;-45
2024/01/16 01:58:45;;;;;;;1.25;1.15;;;4.40;47.10;;;;;;5094630;28;20323;-47
2024/01/16 02:01:13;;;;;;;0.80;0.40;;;4.50;46.70;;;;;;5094555;28;20562;-47
2024/01/16 02:03:47;;;;;;;0.80;0.40;;;4.50;46.60;;;;;;5094524;28;20215;-46
2024/01/16 02:06:13;;;;;;;0.80;0.30;;;4.50;46.30;;;;;;5094690;28;20594;-48
2024/01/16 02:08:39;;;;;;;0.80;0.40;;;4.60;45.90;;;;;;5094460;28;20175;-44
2024/01/16 02:11:05;;;;;;;0.80;0.20;;;4.60;45.60;;;;;;5094400;28;20203;-46
2024/01/16 02:13:32;;;;;;;0.80;0.35;;;4.80;45.30;;;;;;5094252;28;20172;-48
2024/01/16 02:15:58;;;;;;;0.88;0.57;;;4.70;44.80;;;;;;5094004;28;20249;-43
2024/01/16 02:18:24;;;;;;;1.55;0.50;;;4.70;45.30;;;;;;5093587;28;20653;-43
2024/01/16 02:20:50;;;;;;;1.70;0.43;;;4.70;45.10;;;;;;5094003;28;20196;-46
2024/01/16 02:23:26;;;;;;;1.00;0.63;;;4.80;44.70;;;;;;5094100;28;20726;-44
2024/01/16 02:25:52;;;;;;;1.10;0.80;;;4.70;44.80;;;;;;5094087;28;20283;-46
2024/01/16 02:28:18;;;;;;;1.30;0.40;;;4.50;46.10;;;;;;5094134;28;20168;-45
2024/01/16 02:30:44;;;;;;;1.57;1.13;;;4.40;46.40;;;;;;5094292;28;20233;-43
2024/01/16 02:33:09;;;;;;;0.80;0.30;;;4.30;47.10;;;;;;5094745;28;20169;-44
2024/01/16 02:35:35;;;;;;;0.80;0.40;;;4.30;47.40;;;;;;5094022;28;20179;-47
2024/01/16 02:38:01;;;;;;;0.80;0.20;;;4.40;47.20;;;;;;5093903;28;20172;-45
2024/01/16 02:40:26;;;;;;;0.80;0.40;;;4.50;46.70;;;;;;5094084;28;20215;-45
2024/01/16 02:42:52;;;;;;;0.80;0.37;;;4.40;47.10;;;;;;5094007;28;20601;-43
2024/01/16 02:45:18;;;;;;;0.80;0.40;;;4.40;47.10;;;;;;5093848;28;20310;-44
2024/01/16 02:47:44;;;;;;;0.80;0.40;;;4.50;47.10;;;;;;5094162;28;20164;-44
2024/01/16 02:50:09;;;;;;;0.80;0.30;;;4.60;46.80;;;;;;5093958;28;20559;-49
2024/01/16 02:52:35;;;;;;;0.80;0.20;;;4.60;47.10;;;;;;5094075;28;20606;-43
2024/01/16 02:55:01;;;;;;;0.80;0.30;;;4.60;48.00;;;;;;5094845;28;20262;-43
2024/01/16 02:57:27;;;;;;;0.80;0.20;;;4.60;47.20;;;;;;5094643;28;20180;-46
2024/01/16 02:59:53;;;;;;;0.80;0.30;;;4.60;46.90;;;;;;5093300;28;20924;-49
2024/01/16 03:02:18;;;;;;;0.80;0.30;;;4.70;46.60;;;;;;5093499;28;20234;-44
2024/01/16 03:04:44;;;;;;;1.07;0.47;;;4.60;46.30;;;;;;5093430;28;20204;-43
2024/01/16 03:07:10;;;;;;;0.90;0.50;;;4.60;46.30;;;;;;5093283;28;20173;-46
2024/01/16 03:09:36;;;;;;;0.80;0.20;;;4.60;46.30;;;;;;5093164;28;20530;-45
2024/01/16 03:12:02;;;;;;;0.80;0.40;;;4.60;45.90;;;;;;5093238;28;20410;-47
2024/01/16 03:14:33;;;;;;;0.80;0.40;;;4.60;45.60;;;;;;5093300;28;20183;-48
2024/01/16 03:17:00;;;;;;;0.80;0.30;;;4.60;45.60;;;;;;5093111;28;20438;-44
2024/01/16 03:19:25;;;;;;;0.80;0.20;;;4.60;45.00;;;;;;5093088;28;20188;-44
2024/01/16 03:21:51;;;;;;;0.90;0.50;;;4.70;45.00;;;;;;5092702;28;20191;-49
2024/01/16 03:24:17;;;;;;;0.80;0.30;;;4.70;44.70;;;;;;5093160;28;20230;-41
2024/01/16 03:26:43;;;;;;;2.23;0.70;;;4.70;44.40;;;;;;5093059;28;20669;-43
2024/01/16 03:29:10;;;;;;;0.80;0.40;;;4.90;44.10;;;;;;5092784;28;20177;-48
2024/01/16 03:31:36;;;;;;;0.80;0.30;;;5.00;43.50;;;;;;5092533;28;20625;-45
2024/01/16 03:34:01;;;;;;;0.80;0.30;;;5.10;43.20;;;;;;5092831;28;20253;-48
2024/01/16 03:36:27;;;;;;;0.80;0.40;;;5.10;43.00;;;;;;5092715;28;20520;-45
2024/01/16 03:38:53;;;;;;;0.90;0.60;;;5.00;42.20;;;;;;5092883;28;20169;-43
2024/01/16 03:41:19;;;;;;;0.80;0.30;;;4.90;42.70;;;;;;5092413;28;20862;-46
2024/01/16 03:43:44;;;;;;;0.90;0.40;;;4.90;42.80;;;;;;5092666;28;20717;-45
2024/01/16 03:46:11;;;;;;;0.90;0.60;;;5.00;43.20;;;;;;5092655;28;20549;-45
2024/01/16 03:48:37;;;;;;;0.90;0.50;;;4.90;43.80;;;;;;5092624;28;20211;-46
2024/01/16 03:51:03;;;;;;;0.90;0.50;;;4.80;44.10;;;;;;5092262;28;20261;-44
2024/01/16 03:53:28;;;;;;;0.80;0.40;;;4.70;45.30;;;;;;5092593;28;20239;-46
2024/01/16 03:55:54;;;;;;;0.80;0.40;;;4.80;45.10;;;;;;5092486;28;20856;-45
2024/01/16 03:58:20;;;;;;;0.90;0.60;;;4.80;45.00;;;;;;5092515;28;20177;-45
2024/01/16 04:00:47;;;;;;;0.80;0.30;;;5.00;45.00;;;;;;5091055;28;20677;-45
2024/01/16 04:03:13;;;;;;;0.80;0.30;;;4.80;45.70;;;;;;5092417;28;20199;-49
2024/01/16 04:05:39;;;;;;;0.80;0.30;;;4.80;45.80;;;;;;5092223;28;20712;-45
2024/01/16 04:08:05;;;;;;;0.80;0.30;;;4.90;45.60;;;;;;5092611;28;20432;-48
2024/01/16 04:10:30;;;;;;;0.80;0.40;;;5.00;45.20;;;;;;5092081;28;20427;-49
2024/01/16 04:12:59;;;;;;;0.80;0.30;;;5.00;45.00;;;;;;5092216;28;20402;-46
2024/01/16 04:15:25;;;;;;;0.90;0.52;;;5.10;44.80;;;;;;5092586;28;20200;-48
2024/01/16 04:17:51;;;;;;;0.70;0.20;;;5.10;44.90;;;;;;5092133;28;20226;-44
2024/01/16 04:20:16;;;;;;;0.80;0.30;;;5.10;44.70;;;;;;5091968;28;20215;-45
2024/01/16 04:22:42;;;;;;;2.63;0.77;;;5.00;45.10;;;;;;5092322;28;20165;-46
2024/01/16 04:25:08;;;;;;;1.27;0.73;;;5.00;45.60;;;;;;5092080;28;20669;-44
2024/01/16 04:27:35;;;;;;;1.10;0.57;;;4.90;46.30;;;;;;5092171;28;20219;-47
2024/01/16 04:30:01;;;;;;;0.90;0.50;;;4.80;46.60;;;;;;5091868;28;20670;-45
2024/01/16 04:32:26;;;;;;;1.27;0.87;;;4.90;46.20;;;;;;5090705;28;20433;-47
2024/01/16 04:34:52;;;;;;;0.90;0.47;;;5.00;45.80;;;;;;5092018;28;20169;-46
2024/01/16 04:37:18;;;;;;;1.10;0.63;;;5.10;45.60;;;;;;5091964;28;21119;-45
2024/01/16 04:39:44;;;;;;;0.80;0.40;;;5.10;45.40;;;;;;5090710;28;20409;-43
2024/01/16 04:42:09;;;;;;;0.80;0.33;;;5.10;45.30;;;;;;5096193;28;20176;-47
2024/01/16 04:44:35;;;;;;;0.80;0.50;;;5.10;45.10;;;;;;5095868;28;20227;-44
2024/01/16 04:47:01;;;;;;;0.80;0.33;;;5.10;44.70;;;;;;5096154;28;20165;-44
2024/01/16 04:49:27;;;;;;;0.80;0.40;;;5.00;44.50;;;;;;5095874;28;20417;-50
2024/01/16 04:51:53;;;;;;;1.37;0.87;;;5.00;44.60;;;;;;5095741;28;20196;-47
2024/01/16 04:54:19;;;;;;;0.80;0.20;;;5.10;43.70;;;;;;5095870;28;20505;-46
2024/01/16 04:56:45;;;;;;;0.80;0.30;;;5.10;43.40;;;;;;5096088;28;20455;-45
2024/01/16 04:59:11;;;;;;;0.80;0.40;;;5.20;42.50;;;;;;5095779;28;20494;-48
2024/01/16 05:01:37;;;;;;;0.80;0.30;;;5.10;42.50;;;;;;5095521;28;20490;-43
2024/01/16 05:04:03;;;;;;;0.80;0.20;;;5.00;42.60;;;;;;5095545;28;20284;-48
2024/01/16 05:06:29;;;;;;;3.42;1.15;;;4.90;42.80;;;;;;5095635;28;20184;-46
2024/01/16 05:08:55;;;;;;;0.75;0.20;;;5.00;42.30;;;;;;5095772;28;20252;-45
2024/01/16 05:11:21;;;;;;;0.80;0.30;;;4.90;42.50;;;;;;5095404;28;20622;-49
2024/01/16 05:13:47;;;;;;;1.87;0.60;;;4.80;42.20;;;;;;5095670;28;20255;-47
2024/01/16 05:16:13;;;;;;;0.80;0.20;;;4.80;42.70;;;;;;5095635;28;20904;-45
2024/01/16 05:18:42;;;;;;;1.02;0.88;;;4.70;42.60;;;;;;5095382;28;20173;-48
2024/01/16 05:21:08;;;;;;;0.80;0.30;;;4.40;44.00;;;;;;5095380;28;20220;-43
2024/01/16 05:23:34;;;;;;;1.27;1.07;;;4.50;43.00;;;;;;5095482;28;20223;-47
2024/01/16 05:26:00;;;;;;;0.80;0.30;;;4.50;43.30;;;;;;5095345;28;20816;-45
2024/01/16 05:28:26;;;;;;;1.20;0.83;;;4.60;42.80;;;;;;5095267;28;20173;-42
2024/01/16 05:30:51;;;;;;;0.83;0.60;;;4.70;42.60;;;;;;5095004;28;20192;-50
2024/01/16 05:33:17;;;;;;;0.90;0.53;;;4.80;42.30;;;;;;5095236;28;20249;-46
2024/01/16 05:35:43;;;;;;;0.80;0.20;;;4.90;41.30;;;;;;5095079;28;20172;-44
2024/01/16 05:38:08;;;;;;;0.87;0.43;;;5.00;41.20;;;;;;5094937;28;20497;-46
2024/01/16 05:40:34;;;;;;;0.93;0.77;;;5.00;40.70;;;;;;5094778;28;20210;-49
2024/01/16 05:43:00;;;;;;;1.00;0.70;;;5.00;41.20;;;;;;5093746;28;20176;-42
2024/01/16 05:45:25;;;;;;;0.80;0.20;;;5.10;41.30;;;;;;5094708;28;20200;-46
2024/01/16 05:47:51;;;;;;;1.30;0.93;;;5.00;40.90;;;;;;5094988;28;20226;-45
2024/01/16 05:50:18;;;;;;;1.00;0.53;;;5.00;41.30;;;;;;5094593;28;20354;-43
2024/01/16 05:52:44;;;;;;;0.80;0.30;;;5.20;41.40;;;;;;5094640;28;20195;-46
2024/01/16 05:55:10;;;;;;;0.70;0.20;;;5.30;41.10;;;;;;5094698;28;20654;-45
2024/01/16 05:57:37;;;;;;;0.88;0.43;;;5.30;40.90;;;;;;5094700;28;20489;-50
2024/01/16 06:00:05;;;;;;;0.85;0.43;;;5.30;40.00;;;;;;5094287;28;20205;-44
2024/01/16 06:02:31;;;;;;;0.80;0.40;;;5.10;40.40;;;;;;5094950;28;20181;-45
2024/01/16 06:04:56;;;;;;;0.90;0.50;;;5.10;41.00;;;;;;5094741;28;20204;-46
2024/01/16 06:07:23;;;;;;;0.80;0.40;;;5.20;41.10;;;;;;5094788;28;20485;-44
2024/01/16 06:09:48;;;;;;;0.80;0.45;;;5.10;41.30;;;;;;5094310;28;20197;-45
2024/01/16 06:12:14;;;;;;;0.80;0.40;;;5.10;41.20;;;;;;5094550;28;20172;-48
2024/01/16 06:14:40;;;;;;;0.80;0.20;;;4.90;41.10;;;;;;5094778;28;20183;-51
2024/01/16 06:17:06;;;;;;;0.80;0.30;;;4.80;42.20;;;;;;5094737;28;20181;-44
2024/01/16 06:19:32;;;;;;;0.90;0.40;;;4.80;43.10;;;;;;5094219;28;20188;-44
2024/01/16 06:21:59;;;;;;;0.90;0.57;;;4.80;44.30;;;;;;5094395;28;20415;-48
2024/01/16 06:24:25;;;;;;;1.88;1.75;;;4.60;45.20;;;;;;5095051;28;20200;-45
2024/01/16 06:26:51;;;;;;;0.70;0.22;;;4.60;45.10;;;;;;5094135;28;20180;-44
2024/01/16 06:29:17;;;;;;;0.80;0.40;;;4.70;45.40;;;;;;5093952;28;20177;-43
2024/01/16 06:31:43;;;;;;;0.80;0.40;;;4.80;44.80;;;;;;5094108;28;20425;-50
2024/01/16 06:34:08;;;;;;;0.80;0.37;;;4.90;44.40;;;;;;5093969;28;20545;-50
2024/01/16 06:36:34;;;;;;;0.70;0.20;;;5.00;43.80;;;;;;5092669;28;20411;-44
2024/01/16 06:39:00;;;;;;;0.80;0.33;;;5.10;43.60;;;;;;5093882;28;20206;-45
2024/01/16 06:41:26;;;;;;;0.80;0.20;;;5.00;43.40;;;;;;5093576;28;20208;-48
2024/01/16 06:43:51;;;;;;;1.00;0.40;;;4.90;43.60;;;;;;5093595;28;20595;-44
2024/01/16 06:46:17;;;;;;;0.90;0.50;;;4.90;43.60;;;;;;5093963;28;20587;-43
2024/01/16 06:48:43;;;;;;;0.80;0.30;;;4.60;45.20;;;;;;5093808;28;20734;-47
2024/01/16 06:51:10;;;;;;;0.80;0.30;;;4.70;45.10;;;;;;5093564;28;20418;-49
2024/01/16 06:53:36;;;;;;;0.80;0.30;;;4.80;44.50;;;;;;5093657;28;20179;-43
2024/01/16 06:56:03;;;;;;;0.90;0.30;;;4.50;44.70;;;;;;5093675;28;20180;-45
2024/01/16 06:58:28;;;;;;;0.80;0.50;;;4.50;44.30;;;;;;5093396;28;20410;-46
2024/01/16 07:00:55;;;;;;;0.80;0.27;;;4.50;46.80;;;;;;5094423;28;20215;-49
2024/01/16 07:03:21;;;;;;;0.70;0.30;;;4.30;47.80;;;;;;5093780;28;20180;-44
2024/01/16 07:05:46;;;;;;;0.80;0.27;;;4.30;47.50;;;;;;5094658;28;20283;-46
2024/01/16 07:08:12;;;;;;;0.80;0.40;;;4.40;46.90;;;;;;5093471;28;20172;-49
2024/01/16 07:10:38;;;;;;;0.80;0.43;;;4.50;46.50;;;;;;5093011;28;20223;-44
2024/01/16 07:13:04;;;;;;;2.00;1.53;;;4.40;45.80;;;;;;5093170;28;20175;-46
2024/01/16 07:15:29;;;;;;;0.80;0.40;;;4.50;45.30;;;;;;5093291;28;20448;-44
2024/01/16 07:17:55;;;;;;;0.80;0.30;;;4.60;44.30;;;;;;5093240;28;20256;-48
2024/01/16 07:20:21;;;;;;;0.80;0.40;;;4.60;43.60;;;;;;5093043;28;20199;-46
2024/01/16 07:22:47;;;;;;;1.33;1.23;;;4.60;43.60;;;;;;5093212;28;20200;-45
2024/01/16 07:25:12;;;;;;;1.03;0.60;;;4.70;43.20;;;;;;5092929;28;20235;-44
2024/01/16 07:27:38;;;;;;;1.87;1.17;;;4.70;42.90;;;;;;5092904;28;20409;-47
2024/01/16 07:30:06;;;;;;;1.03;0.70;;;4.70;41.60;;;;;;5092932;28;20184;-50
2024/01/16 07:32:32;;;;;;;0.80;0.30;;;4.60;41.90;;;;;;5092846;28;20411;-45
2024/01/16 07:34:57;;;;;;;2.80;1.00;;;4.70;42.30;;;;;;5092861;28;20317;-48
2024/01/16 07:37:23;;;;;;;0.80;0.43;;;4.80;42.30;;;;;;5092787;28;20272;-46
2024/01/16 07:39:49;;;;;;;0.80;0.40;;;4.90;41.70;;;;;;5092419;28;20410;-47
2024/01/16 07:42:15;;;;;;;0.80;0.30;;;4.90;41.20;;;;;;5091451;28;20539;-49
2024/01/16 07:44:41;;;;;;;0.87;0.57;;;4.60;40.20;;;;;;5092755;28;20457;-44
2024/01/16 07:47:07;;;;;;;0.80;0.30;;;4.60;41.80;;;;;;5092710;28;20317;-45
2024/01/16 07:49:34;;;;;;;0.90;0.40;;;4.70;40.30;;;;;;5092359;28;20519;-48
2024/01/16 07:51:59;;;;;;;0.80;0.30;;;4.70;40.40;;;;;;5092484;28;20863;-44
2024/01/16 07:54:25;;;;;;;1.20;0.80;;;4.70;40.00;;;;;;5092570;28;20735;-45
2024/01/16 07:56:52;;;;;;;0.95;0.75;;;4.60;41.40;;;;;;5092340;28;20196;-50
2024/01/16 07:59:17;;;;;;;0.75;0.30;;;4.80;40.80;;;;;;5092715;28;20225;-43
2024/01/16 08:01:43;;;;;;;0.80;0.40;;;4.80;39.90;;;;;;5092241;28;20184;-43
2024/01/16 08:04:09;;;;;;;0.98;0.80;;;4.90;40.00;;;;;;5091247;28;20812;-48
2024/01/16 08:06:36;;;;;;;0.80;0.67;;;4.90;40.20;;;;;;5092396;28;20188;-50
2024/01/16 08:09:02;;;;;;;1.20;0.93;;;5.00;40.00;;;;;;5092366;28;20411;-44
2024/01/16 08:11:29;;;;;;;0.80;0.50;;;5.10;39.90;;;;;;5092074;28;20235;-45
2024/01/16 08:13:55;;;;;;;0.80;0.40;;;5.00;39.70;;;;;;5091935;28;20184;-47
2024/01/16 08:16:21;;;;;;;0.80;0.40;;;5.10;39.80;;;;;;5091708;28;20177;-44
2024/01/16 08:18:47;;;;;;;0.80;0.53;;;5.20;39.90;;;;;;5092264;28;20253;-45
2024/01/16 08:21:13;;;;;;;0.88;0.60;;;5.30;40.10;;;;;;5092005;28;20230;-47
2024/01/16 08:23:39;;;;;;;1.40;1.13;;;5.30;39.80;;;;;;5092179;28;20200;-45
2024/01/16 08:26:05;;;;;;;2.00;1.10;;;5.40;38.80;;;;;;5092017;28;20906;-47
2024/01/16 08:28:30;;;;;;;0.80;0.30;;;5.30;39.40;;;;;;5092266;28;20187;-48
2024/01/16 08:30:56;;;;;;;4.63;0.97;;;5.40;39.60;;;;;;5091998;28;20419;-42
2024/01/16 08:33:22;;;;;;;0.80;0.50;;;5.40;38.80;;;;;;5092083;28;20294;-45
2024/01/16 08:35:48;;;;;;;0.80;0.30;;;5.40;39.00;;;;;;5092128;28;20199;-47
2024/01/16 08:38:14;;;;;;;2.17;1.00;;;5.50;39.10;;;;;;5092041;28;20176;-46
2024/01/16 08:40:39;;;;;;;0.80;0.40;;;5.50;38.80;;;;;;5091593;28;20449;-44
2024/01/16 08:43:05;;;;;;;0.80;0.40;;;5.50;38.60;;;;;;5092253;28;20238;-50
2024/01/16 08:45:31;;;;;;;0.80;0.30;;;5.50;38.70;;;;;;5091862;28;20200;-45
2024/01/16 08:47:58;;;;;;;0.87;0.53;;;5.40;38.00;;;;;;5091904;28;20184;-43
2024/01/16 08:50:23;;;;;;;0.80;0.32;;;5.30;38.40;;;;;;5091671;28;20193;-49
2024/01/16 08:52:49;;;;;;;0.80;0.30;;;5.10;38.40;;;;;;5091934;28;20183;-50
2024/01/16 08:55:15;;;;;;;0.80;0.30;;;5.10;39.10;;;;;;5091744;28;20183;-43
2024/01/16 08:57:40;;;;;;;0.90;0.53;;;5.10;38.80;;;;;;5091926;28;20218;-43
2024/01/16 09:00:08;;;;;;;0.80;0.30;;;5.00;39.20;;;;;;5091870;28;20192;-49
2024/01/16 09:02:35;;;;;;;0.80;0.30;;;5.00;39.20;;;;;;5091813;28;20591;-45
2024/01/16 09:05:00;;;;;;;0.80;0.40;;;5.00;39.20;;;;;;5091832;28;20207;-46
2024/01/16 09:07:26;;;;;;;1.07;0.57;;;5.10;39.30;;;;;;5091673;28;20169;-48
2024/01/16 09:09:53;;;;;;;0.80;0.40;;;5.30;38.70;;;;;;5091691;28;20227;-44
2024/01/16 09:12:19;;;;;;;0.80;0.40;;;5.20;38.30;;;;;;5091753;28;20180;-45
2024/01/16 09:14:45;;;;;;;0.90;0.63;;;5.20;38.30;;;;;;5092113;28;20168;-48
2024/01/16 09:17:11;;;;;;;0.80;0.50;;;5.10;38.70;;;;;;5091708;28;20221;-44
2024/01/16 09:19:36;;;;;;;0.80;0.40;;;5.10;38.90;;;;;;5091528;28;20408;-43
2024/01/16 09:22:03;;;;;;;0.80;0.33;;;5.30;38.80;;;;;;5090176;28;20176;-51
2024/01/16 09:24:29;;;;;;;1.38;0.70;;;5.40;38.70;;;;;;5091706;28;20538;-44
2024/01/16 09:26:55;;;;;;;0.90;0.63;;;5.40;38.10;;;;;;5093827;28;20198;-42
2024/01/16 09:29:22;;;;;;;2.40;0.77;;;5.40;38.00;;;;;;5095260;28;20177;-46
2024/01/16 09:31:48;;;;;;;0.80;0.40;;;5.50;37.70;;;;;;5095042;28;20204;-47
2024/01/16 09:34:14;;;;;;;0.90;0.50;;;5.50;38.10;;;;;;5095212;28;20731;-46
2024/01/16 09:36:40;;;;;;;1.13;0.63;;;5.50;37.80;;;;;;5094927;28;20241;-46
2024/01/16 09:39:08;;;;;;;0.90;0.40;;;5.70;37.60;;;;;;5093960;28;20479;-48
2024/01/16 09:41:34;;;;;;;0.93;0.50;;;5.50;37.60;;;;;;5095089;28;20220;-44
2024/01/16 09:44:00;;;;;;;0.80;0.50;;;5.50;38.30;;;;;;5095134;28;20541;-45
2024/01/16 09:46:27;;;;;;;2.40;1.07;;;5.70;37.20;;;;;;5095187;28;20175;-50
2024/01/16 09:48:56;;;;;;;0.80;0.30;;;5.60;36.60;;;;;;5095257;28;20828;-47
2024/01/16 09:51:22;;;;;;;0.80;0.30;;;4.80;38.10;;;;;;5094962;28;20566;-44
2024/01/16 09:53:48;;;;;;;1.15;0.98;;;5.60;37.60;;;;;;5094840;28;20172;-48
2024/01/16 09:56:20;;;;;;;2.13;0.63;;;5.90;37.60;;;;;;5095351;28;20301;-49
2024/01/16 09:58:49;;;;;;;0.90;0.68;;;6.30;36.90;;;;;;5095257;28;20407;-44
2024/01/16 10:01:16;;;;;;;1.33;1.23;;;6.50;36.90;;;;;;5094494;28;20593;-45
2024/01/16 10:03:45;;;;;;;1.17;0.55;;;6.70;35.00;;;;;;5094546;28;20172;-45
2024/01/16 10:06:12;;;;;;;1.42;0.90;;;6.60;36.20;;;;;;5094552;28;20230;-49
2024/01/16 10:08:39;;;;;;;0.90;0.55;;;6.70;35.20;;;;;;5094676;28;20616;-46
2024/01/16 10:11:04;;;;;;;0.80;0.30;;;6.60;35.30;;;;;;5094233;28;20212;-48
2024/01/16 10:13:32;;;;;;;0.80;0.50;;;6.60;36.20;;;;;;5094505;28;20199;-44
2024/01/16 10:15:59;;;;;;;0.95;0.73;;;6.80;34.70;;;;;;5093324;28;20247;-46
2024/01/16 10:18:26;;;;;;;0.90;0.70;;;6.90;34.90;;;;;;5094185;28;20189;-47
2024/01/16 10:20:53;;;;;;;1.45;1.35;;;7.00;34.20;;;;;;5094005;28;20192;-45
2024/01/16 10:23:29;;;;;;;1.00;0.60;;;7.00;34.70;;;;;;5094275;28;20172;-44
2024/01/16 10:26:14;;;;;;;0.85;0.43;;;7.10;33.60;;;;;;5094159;28;20199;-49
2024/01/16 10:28:43;;;;;;;2.35;1.30;;;7.00;33.90;;;;;;5094186;28;20184;-50
2024/01/16 10:31:16;;;;;;;0.80;0.20;;;7.10;34.50;;;;;;5093809;28;20188;-44
2024/01/16 10:33:42;;;;;;;1.67;1.30;;;7.40;33.90;;;;;;5094225;28;20181;-48
2024/01/16 10:36:20;;;;;;;0.90;0.50;;;7.60;33.10;;;;;;5093978;28;20707;-45
2024/01/16 10:38:46;;;;;;;1.63;1.52;;;7.70;32.50;;;;;;5093144;28;20203;-49
2024/01/16 10:41:13;;;;;;;2.22;0.70;;;7.70;33.10;;;;;;5093450;28;20221;-49
2024/01/16 10:43:39;;;;;;;1.48;1.02;;;7.70;32.90;;;;;;5093764;28;20183;-44
2024/01/16 10:46:12;;;;;;;5.38;1.15;;;7.90;32.40;;;;;;5093765;28;20803;-46
2024/01/16 10:48:39;;;;;;;1.30;1.08;;;8.00;31.70;;;;;;5093869;28;20215;-44
2024/01/16 10:51:16;;;;;;;0.80;0.43;;;8.10;31.70;;;;;;5093564;28;20196;-45
2024/01/16 10:53:44;;;;;;;0.90;0.60;;;8.00;31.50;;;;;;5093558;28;20672;-46
2024/01/16 10:56:12;;;;;;;0.90;0.57;;;8.20;32.50;;;;;;5093608;28;20229;-44
2024/01/16 10:58:41;;;;;;;1.30;1.20;;;8.30;31.30;;;;;;5093699;28;20176;-49
2024/01/16 11:01:12;;;;;;;0.93;0.68;;;8.30;31.30;;;;;;5093468;28;20196;-49
2024/01/16 11:03:48;;;;;;;1.05;0.95;;;8.30;30.10;;;;;;5093455;28;20188;-43
2024/01/16 11:06:18;;;;;;;0.80;0.38;;;8.20;31.20;;;;;;5093288;28;20690;-49
2024/01/16 11:08:48;;;;;;;3.95;1.73;;;8.20;30.60;;;;;;5093374;28;20626;-50
2024/01/16 11:11:15;;;;;;;0.82;0.40;;;8.00;30.60;;;;;;5093233;28;20711;-43
2024/01/16 11:13:44;;;;;;;0.80;0.40;;;7.90;31.40;;;;;;5093386;28;20625;-47
2024/01/16 11:16:11;;;;;;;1.55;1.05;;;7.90;31.40;;;;;;5093330;28;20191;-49
2024/01/16 11:18:37;;;;;;;1.00;0.60;;;7.80;31.10;;;;;;5093127;28;20211;-43
2024/01/16 11:21:12;;;;;;;1.00;0.60;;;7.70;31.80;;;;;;5092828;28;20200;-50
2024/01/16 11:23:38;;;;;;;1.10;0.90;;;7.70;31.90;;;;;;5093257;28;20180;-47
2024/01/16 11:26:32;;;;;;;0.90;0.40;;;7.70;31.40;;;;;;5093007;28;20700;-44
2024/01/16 11:28:59;;;;;;;6.68;1.75;;;7.80;32.40;;;;;;5092965;28;20405;-44
2024/01/16 11:31:34;;;;;;;1.40;1.10;;;7.70;31.70;;;;;;5092573;28;20192;-48
2024/01/16 11:34:01;;;;;;;1.30;1.00;;;7.80;31.40;;;;;;5092887;28;20684;-44
2024/01/16 11:36:59;;;;;;;1.30;0.60;;;7.70;32.00;;;;;;5093334;28;20184;-47
2024/01/16 11:39:25;;;;;;;1.30;0.70;;;7.70;31.50;;;;;;5093422;28;20666;-44
2024/01/16 11:41:59;;;;;;;0.90;0.50;;;7.60;31.20;;;;;;5092688;28;20207;-48
2024/01/16 11:44:51;;;;;;;1.00;0.90;;;7.40;31.60;;;;;;5093017;28;20282;-45
2024/01/16 11:47:18;;;;;;;1.23;1.10;;;7.40;32.20;;;;;;5092465;28;20805;-47
2024/01/16 11:49:44;;;;;;;0.95;0.75;;;7.40;32.30;;;;;;5092223;28;20242;-50
2024/01/16 11:52:13;;;;;;;0.80;0.30;;;7.50;31.80;;;;;;5092469;28;20176;-45
2024/01/16 11:54:42;;;;;;;0.90;0.63;;;7.50;32.00;;;;;;5092464;28;20172;-48
2024/01/16 11:57:31;;;;;;;0.98;0.80;;;7.50;31.30;;;;;;5092663;28;20271;-44
2024/01/16 12:00:12;;;;;;;1.00;0.85;;;7.60;32.30;;;;;;5092248;28;20230;-47
2024/01/16 12:02:54;;;;;;;1.27;0.82;;;7.80;31.50;;;;;;5092334;28;20553;-45
2024/01/16 12:05:20;;;;;;;0.90;0.50;;;7.80;31.30;;;;;;5092513;28;20295;-50
2024/01/16 12:07:54;;;;;;;2.25;0.60;;;8.00;31.40;;;;;;5092498;28;20215;-42
2024/01/16 12:10:24;;;;;;;0.93;0.68;;;8.10;31.60;;;;;;5092149;28;20275;-49
2024/01/16 12:12:51;;;;;;;1.00;0.75;;;8.00;30.10;;;;;;5092190;28;20172;-45
2024/01/16 12:15:21;;;;;;;1.40;1.30;;;7.90;30.70;;;;;;5092162;28;20168;-42
2024/01/16 12:17:58;;;;;;;3.47;1.52;;;7.90;31.70;;;;;;5092450;28;20177;-49
2024/01/16 12:20:27;;;;;;;0.90;0.57;;;8.00;31.80;;;;;;5092016;28;20206;-44
2024/01/16 12:23:04;;;;;;;1.55;1.42;;;8.10;31.80;;;;;;5092146;28;20657;-46
2024/01/16 12:25:31;;;;;;;0.90;0.50;;;8.20;31.00;;;;;;5091981;28;20203;-44
2024/01/16 12:28:05;;;;;;;1.00;0.73;;;8.30;30.90;;;;;;5092343;28;20204;-51
2024/01/16 12:30:36;;;;;;;2.10;1.08;;;8.30;30.70;;;;;;5091765;28;20569;-49
2024/01/16 12:33:12;;;;;;;0.93;0.40;;;8.40;30.20;;;;;;5092172;28;20180;-46
2024/01/16 12:35:38;;;;;;;1.48;1.30;;;8.50;30.00;;;;;;5092145;28;20176;-52
2024/01/16 12:38:05;;;;;;;0.87;0.50;;;8.60;29.10;;;;;;5091940;28;20685;-48
2024/01/16 12:40:33;;;;;;;1.00;0.70;;;8.60;30.30;;;;;;5091565;28;20239;-43
2024/01/16 12:42:59;;;;;;;0.80;0.30;;;8.50;29.50;;;;;;5091980;28;20180;-45
2024/01/16 12:45:25;;;;;;;1.00;0.70;;;8.50;30.40;;;;;;5091954;28;20206;-48
2024/01/16 12:47:52;;;;;;;1.75;0.82;;;8.50;30.10;;;;;;5091835;28;20407;-45
2024/01/16 12:50:23;;;;;;;1.20;0.68;;;8.40;29.00;;;;;;5091608;28;20681;-50
2024/01/16 12:52:50;;;;;;;0.95;0.50;;;8.30;29.00;;;;;;5091846;28;20177;-51
2024/01/16 12:55:17;;;;;;;1.38;0.95;;;8.20;29.70;;;;;;5092049;28;20183;-44
2024/01/16 12:57:45;;;;;;;1.00;0.75;;;8.20;30.40;;;;;;5091911;28;20176;-51